createdAt,value
2023-01-23T00:00:04.089Z,0.06
2023-01-23T00:01:03.997Z,0.12
2023-01-23T00:02:03.995Z,0.12
2023-01-23T00:03:03.909Z,0.12
2023-01-23T00:04:03.803Z,0.12
2023-01-23T00:05:03.750Z,0.06
2023-01-23T00:06:03.749Z,0.06
2023-01-23T00:07:03.672Z,0.06
2023-01-23T00:08:03.674Z,0.06
2023-01-23T00:09:03.593Z,0.06
2023-01-23T00:10:03.448Z,0.06
2023-01-23T00:11:04.475Z,0.06
2023-01-23T00:12:04.306Z,0.06
2023-01-23T00:13:04.157Z,0.06
2023-01-23T00:14:04.163Z,0.06
2023-01-23T00:15:05.980Z,0.06
2023-01-23T00:16:04.149Z,0.06
2023-01-23T00:17:03.995Z,0.06
2023-01-23T00:18:03.909Z,0.06
2023-01-23T00:19:03.846Z,0.06
2023-01-23T00:20:03.668Z,0.06
2023-01-23T00:21:03.685Z,0.06
2023-01-23T00:22:03.768Z,0.06
2023-01-23T00:23:03.826Z,0.06
2023-01-23T00:24:03.754Z,0.06
2023-01-23T00:25:03.677Z,0.06
2023-01-23T00:26:03.674Z,0.06
2023-01-23T00:27:03.507Z,0.12
2023-01-23T00:28:04.476Z,0.06
2023-01-23T00:29:04.406Z,0.06
2023-01-23T00:30:04.230Z,0.06
2023-01-23T00:31:04.382Z,0.00
2023-01-23T00:32:04.345Z,0.06
2023-01-23T00:33:04.318Z,0.06
2023-01-23T00:34:04.247Z,0.06
2023-01-23T00:35:04.153Z,0.06
2023-01-23T00:36:04.080Z,0.06
2023-01-23T00:37:04.073Z,0.06
2023-01-23T00:38:03.929Z,0.06
2023-01-23T00:39:03.906Z,0.06
2023-01-23T00:40:03.911Z,0.06
2023-01-23T00:41:03.689Z,0.06
2023-01-23T00:42:03.592Z,0.06
2023-01-23T00:43:03.509Z,0.06
2023-01-23T00:44:04.388Z,0.06
2023-01-23T00:45:04.306Z,0.06
2023-01-23T00:46:04.292Z,0.06
2023-01-23T00:47:04.065Z,0.00
2023-01-23T00:48:04.077Z,0.00
2023-01-23T00:49:04.074Z,0.00
2023-01-23T00:50:04.003Z,0.06
2023-01-23T00:51:03.986Z,0.06
2023-01-23T00:52:03.915Z,0.06
2023-01-23T00:53:03.846Z,0.00
2023-01-23T00:54:03.672Z,0.06
2023-01-23T00:55:03.676Z,0.06
2023-01-23T00:56:03.588Z,0.06
2023-01-23T00:57:03.523Z,0.06
2023-01-23T00:58:03.517Z,0.06
2023-01-23T00:59:04.384Z,0.06
2023-01-23T01:00:03.545Z,0.06
2023-01-23T01:01:04.307Z,0.06
2023-01-23T01:02:04.292Z,0.06
2023-01-23T01:03:03.951Z,0.06
2023-01-23T01:04:03.830Z,0.06
2023-01-23T01:05:03.838Z,0.06
2023-01-23T01:06:03.764Z,0.06
2023-01-23T01:07:03.592Z,0.06
2023-01-23T01:08:03.672Z,0.06
2023-01-23T01:09:03.512Z,0.06
2023-01-23T01:10:03.684Z,0.06
2023-01-23T01:11:03.678Z,0.06
2023-01-23T01:12:03.507Z,0.00
2023-01-23T01:13:04.470Z,0.00
2023-01-23T01:14:03.757Z,0.00
2023-01-23T01:15:03.692Z,0.00
2023-01-23T01:16:03.682Z,0.00
2023-01-23T01:17:03.755Z,0.00
2023-01-23T01:18:04.483Z,0.00
2023-01-23T01:19:03.509Z,0.00
2023-01-23T01:20:04.473Z,0.06
2023-01-23T01:21:04.385Z,0.00
2023-01-23T01:22:04.226Z,0.06
2023-01-23T01:23:04.240Z,0.06
2023-01-23T01:24:04.075Z,0.06
2023-01-23T01:25:04.009Z,0.06
2023-01-23T01:26:04.006Z,0.06
2023-01-23T01:27:04.157Z,0.06
2023-01-23T01:28:03.994Z,0.06
2023-01-23T01:29:03.995Z,0.06
2023-01-23T01:30:03.838Z,0.06
2023-01-23T01:31:03.890Z,0.06
2023-01-23T01:32:04.001Z,0.06
2023-01-23T01:33:03.862Z,0.06
2023-01-23T01:34:03.834Z,0.06
2023-01-23T01:35:03.760Z,0.06
2023-01-23T01:36:03.584Z,0.06
2023-01-23T01:37:03.598Z,0.06
2023-01-23T01:38:03.425Z,0.00
2023-01-23T01:39:04.483Z,0.00
2023-01-23T01:40:03.509Z,0.00
2023-01-23T01:41:04.468Z,0.06
2023-01-23T01:42:04.485Z,0.06
2023-01-23T01:43:04.309Z,0.06
2023-01-23T01:44:04.261Z,0.06
2023-01-23T01:45:04.233Z,0.06
2023-01-23T01:46:04.166Z,0.06
2023-01-23T01:47:04.071Z,0.06
2023-01-23T01:48:04.079Z,0.06
2023-01-23T01:49:04.075Z,0.06
2023-01-23T01:50:04.100Z,0.06
2023-01-23T01:51:04.020Z,0.06
2023-01-23T01:52:03.951Z,0.06
2023-01-23T01:53:03.912Z,0.06
2023-01-23T01:54:03.750Z,0.06
2023-01-23T01:55:03.758Z,0.12
2023-01-23T01:56:03.675Z,0.12
2023-01-23T01:57:03.581Z,0.12
2023-01-23T01:58:03.584Z,0.12
2023-01-23T01:59:03.589Z,0.06
2023-01-23T02:00:03.595Z,0.06
2023-01-23T02:01:03.646Z,0.06
2023-01-23T02:02:03.698Z,0.06
2023-01-23T02:03:03.687Z,0.06
2023-01-23T02:04:03.692Z,0.06
2023-01-23T02:05:03.588Z,0.06
2023-01-23T02:06:03.513Z,0.06
2023-01-23T02:07:03.600Z,0.06
2023-01-23T02:08:03.516Z,0.06
2023-01-23T02:09:03.432Z,0.06
2023-01-23T02:10:04.469Z,0.06
2023-01-23T02:11:04.393Z,0.06
2023-01-23T02:12:04.330Z,0.06
2023-01-23T02:13:04.317Z,0.06
2023-01-23T02:14:04.157Z,0.06
2023-01-23T02:15:04.236Z,0.06
2023-01-23T02:16:04.285Z,0.06
2023-01-23T02:17:04.225Z,0.06
2023-01-23T02:18:04.389Z,0.06
2023-01-23T02:19:04.320Z,0.06
2023-01-23T02:20:04.392Z,0.06
2023-01-23T02:21:04.318Z,0.06
2023-01-23T02:22:04.314Z,0.06
2023-01-23T02:23:04.226Z,0.06
2023-01-23T02:24:04.147Z,0.12
2023-01-23T02:25:04.238Z,0.06
2023-01-23T02:26:04.229Z,0.06
2023-01-23T02:27:04.163Z,0.06
2023-01-23T02:28:04.083Z,0.12
2023-01-23T02:29:03.994Z,0.12
2023-01-23T02:30:03.909Z,0.12
2023-01-23T02:31:04.005Z,0.12
2023-01-23T02:32:03.708Z,0.06
2023-01-23T02:33:03.604Z,0.12
2023-01-23T02:34:03.601Z,0.12
2023-01-23T02:35:03.524Z,0.12
2023-01-23T02:36:03.525Z,0.06
2023-01-23T02:37:03.431Z,0.06
2023-01-23T02:38:04.383Z,0.06
2023-01-23T02:39:04.304Z,0.06
2023-01-23T02:40:04.237Z,0.12
2023-01-23T02:41:04.149Z,0.06
2023-01-23T02:42:04.162Z,0.06
2023-01-23T02:43:04.154Z,0.06
2023-01-23T02:44:04.089Z,0.06
2023-01-23T02:45:03.984Z,0.06
2023-01-23T02:46:03.961Z,0.06
2023-01-23T02:47:03.829Z,0.00
2023-01-23T02:48:03.828Z,0.06
2023-01-23T02:49:03.761Z,0.06
2023-01-23T02:50:03.752Z,0.06
2023-01-23T02:51:03.779Z,0.06
2023-01-23T02:52:03.673Z,0.00
2023-01-23T02:53:03.589Z,0.06
2023-01-23T02:54:03.513Z,0.06
2023-01-23T02:55:03.513Z,0.06
2023-01-23T02:56:04.388Z,0.06
2023-01-23T02:57:04.314Z,0.06
2023-01-23T02:58:04.230Z,0.06
2023-01-23T02:59:04.143Z,0.00
2023-01-23T03:00:04.152Z,0.06
2023-01-23T03:01:04.159Z,0.06
2023-01-23T03:02:04.061Z,0.00
2023-01-23T03:03:03.915Z,0.06
2023-01-23T03:04:03.840Z,0.00
2023-01-23T03:05:03.828Z,0.06
2023-01-23T03:06:03.827Z,0.06
2023-01-23T03:07:03.836Z,0.06
2023-01-23T03:08:03.741Z,0.06
2023-01-23T03:09:03.796Z,0.06
2023-01-23T03:10:03.759Z,0.06
2023-01-23T03:11:03.582Z,0.06
2023-01-23T03:12:03.589Z,0.06
2023-01-23T03:13:04.582Z,0.06
2023-01-23T03:14:03.517Z,0.00
2023-01-23T03:15:04.382Z,0.00
2023-01-23T03:16:04.525Z,0.00
2023-01-23T03:17:03.522Z,0.00
2023-01-23T03:18:03.433Z,0.06
2023-01-23T03:19:04.393Z,0.00
2023-01-23T03:20:04.316Z,0.06
2023-01-23T03:21:04.393Z,0.00
2023-01-23T03:22:04.416Z,0.00
2023-01-23T03:23:04.416Z,0.00
2023-01-23T03:24:04.245Z,0.00
2023-01-23T03:25:04.145Z,0.00
2023-01-23T03:26:04.068Z,0.00
2023-01-23T03:27:04.074Z,0.00
2023-01-23T03:28:03.983Z,0.00
2023-01-23T03:29:03.910Z,0.00
2023-01-23T03:30:03.912Z,0.00
2023-01-23T03:31:03.873Z,0.00
2023-01-23T03:32:04.088Z,0.00
2023-01-23T03:33:03.995Z,0.00
2023-01-23T03:34:03.932Z,0.00
2023-01-23T03:35:03.915Z,0.00
2023-01-23T03:36:03.863Z,0.00
2023-01-23T03:37:03.839Z,-0.06
2023-01-23T03:38:03.832Z,0.00
2023-01-23T03:39:03.831Z,0.00
2023-01-23T03:40:03.919Z,0.00
2023-01-23T03:41:03.752Z,-0.06
2023-01-23T03:42:03.755Z,-0.06
2023-01-23T03:43:03.672Z,0.00
2023-01-23T03:44:03.672Z,0.00
2023-01-23T03:45:03.671Z,-0.06
2023-01-23T03:46:03.770Z,-0.06
2023-01-23T03:47:03.586Z,-0.06
2023-01-23T03:48:03.598Z,-0.06
2023-01-23T03:49:03.513Z,-0.06
2023-01-23T03:50:03.514Z,-0.06
2023-01-23T03:51:03.529Z,-0.06
2023-01-23T03:52:04.396Z,0.00
2023-01-23T03:53:04.389Z,0.00
2023-01-23T03:54:04.323Z,0.00
2023-01-23T03:55:04.312Z,0.00
2023-01-23T03:56:04.319Z,0.00
2023-01-23T03:57:04.320Z,0.00
2023-01-23T03:58:04.244Z,0.00
2023-01-23T03:59:04.227Z,0.00
2023-01-23T04:00:04.145Z,0.00
2023-01-23T04:01:04.305Z,0.00
2023-01-23T04:02:04.158Z,0.00
2023-01-23T04:03:04.245Z,0.00
2023-01-23T04:04:04.238Z,0.00
2023-01-23T04:05:04.157Z,0.00
2023-01-23T04:06:04.088Z,0.00
2023-01-23T04:07:03.984Z,0.00
2023-01-23T04:08:04.010Z,0.00
2023-01-23T04:09:04.077Z,0.00
2023-01-23T04:10:03.903Z,0.00
2023-01-23T04:11:03.980Z,0.00
2023-01-23T04:12:03.951Z,0.00
2023-01-23T04:13:03.851Z,0.00
2023-01-23T04:14:03.766Z,0.00
2023-01-23T04:15:03.668Z,0.00
2023-01-23T04:16:03.522Z,0.00
2023-01-23T04:17:03.505Z,0.00
2023-01-23T04:18:03.513Z,0.00
2023-01-23T04:19:04.391Z,0.00
2023-01-23T04:20:04.395Z,0.06
2023-01-23T04:21:04.226Z,0.00
2023-01-23T04:22:04.316Z,0.00
2023-01-23T04:23:04.399Z,0.00
2023-01-23T04:24:04.310Z,0.06
2023-01-23T04:25:04.318Z,0.00
2023-01-23T04:26:04.390Z,0.06
2023-01-23T04:27:04.318Z,0.06
2023-01-23T04:28:04.311Z,0.06
2023-01-23T04:29:04.226Z,0.06
2023-01-23T04:30:04.233Z,0.06
2023-01-23T04:31:04.366Z,0.06
2023-01-23T04:32:04.189Z,0.06
2023-01-23T04:33:04.075Z,0.06
2023-01-23T04:34:03.993Z,0.06
2023-01-23T04:35:04.021Z,0.06
2023-01-23T04:36:03.839Z,0.06
2023-01-23T04:37:03.759Z,0.06
2023-01-23T04:38:03.671Z,0.06
2023-01-23T04:39:03.682Z,0.06
2023-01-23T04:40:03.587Z,0.06
2023-01-23T04:41:03.519Z,0.06
2023-01-23T04:42:04.404Z,0.06
2023-01-23T04:43:04.392Z,0.06
2023-01-23T04:44:04.313Z,0.06
2023-01-23T04:45:04.251Z,0.06
2023-01-23T04:46:04.306Z,0.12
2023-01-23T04:47:04.227Z,0.12
2023-01-23T04:48:04.161Z,0.06
2023-01-23T04:49:03.989Z,0.06
2023-01-23T04:50:03.991Z,0.06
2023-01-23T04:51:04.031Z,0.06
2023-01-23T04:52:04.313Z,0.06
2023-01-23T04:53:04.147Z,0.06
2023-01-23T04:54:04.249Z,0.06
2023-01-23T04:55:04.166Z,0.06
2023-01-23T04:56:04.089Z,0.06
2023-01-23T04:57:03.995Z,0.06
2023-01-23T04:58:03.990Z,0.06
2023-01-23T04:59:03.904Z,0.06
2023-01-23T05:00:04.158Z,0.06
2023-01-23T05:01:04.141Z,0.06
2023-01-23T05:02:04.064Z,0.06
2023-01-23T05:03:03.990Z,0.06
2023-01-23T05:04:03.908Z,0.06
2023-01-23T05:05:03.995Z,0.06
2023-01-23T05:06:03.922Z,0.12
2023-01-23T05:07:03.916Z,0.06
2023-01-23T05:08:03.827Z,0.06
2023-01-23T05:09:03.760Z,0.06
2023-01-23T05:10:03.777Z,0.06
2023-01-23T05:11:03.673Z,0.12
2023-01-23T05:12:03.672Z,0.12
2023-01-23T05:13:03.758Z,0.06
2023-01-23T05:14:03.664Z,0.06
2023-01-23T05:15:03.695Z,0.12
2023-01-23T05:16:03.701Z,0.12
2023-01-23T05:17:03.681Z,0.12
2023-01-23T05:18:03.671Z,0.12
2023-01-23T05:19:04.080Z,0.12
2023-01-23T05:20:04.065Z,0.12
2023-01-23T05:21:04.174Z,0.12
2023-01-23T05:22:04.077Z,0.06
2023-01-23T05:23:03.998Z,0.12
2023-01-23T05:24:03.989Z,0.06
2023-01-23T05:25:04.096Z,0.06
2023-01-23T05:26:04.231Z,0.06
2023-01-23T05:27:04.226Z,0.06
2023-01-23T05:28:04.263Z,0.06
2023-01-23T05:29:04.227Z,0.06
2023-01-23T05:30:04.312Z,0.00
2023-01-23T05:31:04.360Z,0.00
2023-01-23T05:32:04.146Z,0.00
2023-01-23T05:33:04.165Z,0.06
2023-01-23T05:34:04.096Z,0.06
2023-01-23T05:35:04.000Z,0.06
2023-01-23T05:36:04.015Z,0.06
2023-01-23T05:37:04.093Z,0.00
2023-01-23T05:38:04.075Z,0.06
2023-01-23T05:39:03.911Z,0.06
2023-01-23T05:40:03.924Z,0.06
2023-01-23T05:41:03.755Z,0.06
2023-01-23T05:42:03.753Z,0.06
2023-01-23T05:43:03.672Z,0.06
2023-01-23T05:44:03.588Z,0.00
2023-01-23T05:45:03.511Z,0.00
2023-01-23T05:46:03.557Z,0.06
2023-01-23T05:47:04.388Z,0.06
2023-01-23T05:48:04.416Z,0.06
2023-01-23T05:49:04.321Z,0.06
2023-01-23T05:50:04.328Z,0.06
2023-01-23T05:51:04.384Z,0.06
2023-01-23T05:52:04.241Z,0.06
2023-01-23T05:53:04.245Z,0.06
2023-01-23T05:54:04.241Z,0.06
2023-01-23T05:55:04.313Z,0.06
2023-01-23T05:56:04.241Z,0.06
2023-01-23T05:57:04.227Z,0.06
2023-01-23T05:58:04.061Z,0.00
2023-01-23T05:59:04.164Z,0.00
2023-01-23T06:00:04.265Z,0.06
2023-01-23T06:01:04.164Z,0.06
2023-01-23T06:02:04.182Z,0.06
2023-01-23T06:03:04.071Z,0.06
2023-01-23T06:04:03.987Z,0.06
2023-01-23T06:05:04.070Z,0.00
2023-01-23T06:06:03.992Z,0.00
2023-01-23T06:07:04.072Z,0.00
2023-01-23T06:08:04.004Z,0.00
2023-01-23T06:09:04.071Z,0.00
2023-01-23T06:10:04.001Z,0.00
2023-01-23T06:11:03.911Z,0.00
2023-01-23T06:12:03.834Z,0.00
2023-01-23T06:13:03.919Z,0.00
2023-01-23T06:14:03.919Z,0.00
2023-01-23T06:15:03.752Z,0.00
2023-01-23T06:16:03.758Z,0.00
2023-01-23T06:17:03.753Z,-0.06
2023-01-23T06:18:03.765Z,-0.06
2023-01-23T06:19:03.753Z,0.00
2023-01-23T06:20:03.685Z,0.00
2023-01-23T06:21:03.769Z,0.00
2023-01-23T06:22:03.671Z,0.00
2023-01-23T06:23:03.589Z,0.00
2023-01-23T06:24:03.435Z,0.00
2023-01-23T06:25:03.424Z,0.00
2023-01-23T06:26:03.594Z,0.00
2023-01-23T06:27:04.386Z,0.00
2023-01-23T06:28:03.427Z,-0.06
2023-01-23T06:29:04.396Z,0.00
2023-01-23T06:30:03.429Z,0.00
2023-01-23T06:31:04.480Z,0.00
2023-01-23T06:32:04.307Z,0.00
2023-01-23T06:33:04.307Z,0.00
2023-01-23T06:34:04.228Z,0.00
2023-01-23T06:35:04.148Z,0.00
2023-01-23T06:36:04.156Z,0.00
2023-01-23T06:37:04.099Z,0.06
2023-01-23T06:39:03.910Z,0.06
2023-01-23T06:40:03.931Z,0.00
2023-01-23T06:41:03.833Z,0.00
2023-01-23T06:42:03.759Z,0.00
2023-01-23T06:43:03.761Z,0.00
2023-01-23T06:44:03.670Z,0.00
2023-01-23T06:45:03.694Z,0.00
2023-01-23T06:46:03.590Z,-0.06
2023-01-23T06:47:03.542Z,0.00
2023-01-23T06:48:03.603Z,0.00
2023-01-23T06:49:06.077Z,0.00
2023-01-23T06:50:04.399Z,0.00
2023-01-23T06:51:04.437Z,0.00
2023-01-23T06:52:04.231Z,0.00
2023-01-23T06:53:04.228Z,0.00
2023-01-23T06:54:04.154Z,0.00
2023-01-23T06:55:04.146Z,0.00
2023-01-23T06:56:04.063Z,0.00
2023-01-23T06:57:04.069Z,0.00
2023-01-23T06:58:04.076Z,0.00
2023-01-23T06:59:04.078Z,0.00
2023-01-23T07:00:04.057Z,0.00
2023-01-23T07:01:03.989Z,0.00
2023-01-23T07:02:03.827Z,-0.06
2023-01-23T07:03:03.830Z,-0.06
2023-01-23T07:04:03.772Z,-0.06
2023-01-23T07:05:03.594Z,-0.06
2023-01-23T07:06:03.596Z,-0.06
2023-01-23T07:07:03.688Z,-0.06
2023-01-23T07:08:04.768Z,-0.06
2023-01-23T07:09:03.510Z,-0.06
2023-01-23T07:10:04.394Z,-0.06
2023-01-23T07:11:04.333Z,-0.06
2023-01-23T07:12:04.231Z,0.00
2023-01-23T07:13:04.241Z,0.00
2023-01-23T07:14:04.307Z,0.00
2023-01-23T07:15:04.316Z,0.00
2023-01-23T07:16:04.292Z,0.00
2023-01-23T07:17:04.160Z,0.00
2023-01-23T07:18:04.082Z,0.00
2023-01-23T07:19:04.082Z,0.00
2023-01-23T07:20:03.996Z,0.00
2023-01-23T07:21:03.911Z,0.00
2023-01-23T07:22:03.756Z,0.00
2023-01-23T07:23:04.778Z,0.00
2023-01-23T07:24:03.932Z,0.00
2023-01-23T07:25:03.758Z,0.00
2023-01-23T07:26:03.864Z,0.06
2023-01-23T07:27:03.593Z,0.00
2023-01-23T07:28:03.504Z,0.06
2023-01-23T07:29:03.531Z,0.06
2023-01-23T07:30:04.407Z,0.06
2023-01-23T07:31:04.508Z,0.00
2023-01-23T07:32:04.380Z,0.06
2023-01-23T07:33:04.395Z,0.06
2023-01-23T07:34:03.434Z,0.06
2023-01-23T07:35:04.480Z,0.06
2023-01-23T07:36:04.402Z,0.06
2023-01-23T07:37:03.996Z,0.06
2023-01-23T07:38:03.997Z,0.06
2023-01-23T07:39:03.995Z,0.06
2023-01-23T07:40:03.922Z,0.06
2023-01-23T07:41:03.773Z,0.06
2023-01-23T07:42:03.688Z,0.12
2023-01-23T07:43:03.592Z,0.12
2023-01-23T07:44:03.517Z,0.06
2023-01-23T07:45:03.603Z,0.12
2023-01-23T07:46:03.442Z,0.12
2023-01-23T07:47:03.449Z,0.12
2023-01-23T07:48:03.514Z,0.12
2023-01-23T07:49:03.516Z,0.12
2023-01-23T07:50:03.435Z,0.12
2023-01-23T07:51:04.476Z,0.12
2023-01-23T07:52:03.432Z,0.06
2023-01-23T07:53:04.481Z,0.12
2023-01-23T07:54:04.395Z,0.12
2023-01-23T07:55:04.305Z,0.12
2023-01-23T07:56:04.230Z,0.12
2023-01-23T07:57:04.233Z,0.06
2023-01-23T07:58:04.309Z,0.12
2023-01-23T07:59:04.317Z,0.12
2023-01-23T08:00:04.310Z,0.12
2023-01-23T08:01:03.617Z,0.19
2023-01-23T08:02:03.438Z,0.19
2023-01-23T08:03:04.303Z,0.19
2023-01-23T08:04:04.292Z,0.19
2023-01-23T08:05:04.149Z,0.19
2023-01-23T08:06:04.169Z,0.19
2023-01-23T08:07:04.077Z,0.19
2023-01-23T08:08:12.934Z,0.19
2023-01-23T08:09:04.159Z,0.19
2023-01-23T08:10:04.066Z,0.25
2023-01-23T08:11:04.095Z,0.19
2023-01-23T08:12:03.908Z,0.19
2023-01-23T08:13:03.929Z,0.25
2023-01-23T08:14:03.769Z,0.25
2023-01-23T08:15:03.670Z,0.25
2023-01-23T08:16:03.701Z,0.25
2023-01-23T08:17:03.684Z,0.25
2023-01-23T08:18:03.509Z,0.25
2023-01-23T08:19:03.434Z,0.25
2023-01-23T08:20:04.511Z,0.31
2023-01-23T08:21:04.313Z,0.31
2023-01-23T08:22:04.325Z,0.31
2023-01-23T08:23:04.388Z,0.31
2023-01-23T08:24:05.480Z,0.38
2023-01-23T08:25:04.309Z,0.31
2023-01-23T08:26:04.225Z,0.31
2023-01-23T08:27:04.159Z,0.31
2023-01-23T08:28:04.158Z,0.38
2023-01-23T08:29:04.075Z,0.38
2023-01-23T08:30:04.151Z,0.31
2023-01-23T08:31:06.354Z,0.38
2023-01-23T08:32:04.210Z,0.31
2023-01-23T08:33:04.070Z,0.31
2023-01-23T08:34:04.070Z,0.38
2023-01-23T08:35:04.092Z,0.38
2023-01-23T08:36:03.989Z,0.44
2023-01-23T08:37:03.924Z,0.38
2023-01-23T08:38:03.837Z,0.38
2023-01-23T08:39:03.840Z,0.38
2023-01-23T08:40:03.750Z,0.44
2023-01-23T08:41:03.606Z,0.44
2023-01-23T08:42:03.521Z,0.44
2023-01-23T08:43:03.509Z,0.44
2023-01-23T08:44:04.394Z,0.44
2023-01-23T08:45:04.317Z,0.44
2023-01-23T08:46:05.227Z,0.50
2023-01-23T08:47:04.152Z,0.44
2023-01-23T08:48:04.156Z,0.50
2023-01-23T08:49:04.166Z,0.50
2023-01-23T08:50:03.988Z,0.50
2023-01-23T08:51:04.086Z,0.50
2023-01-23T08:52:03.990Z,0.50
2023-01-23T08:53:03.909Z,0.56
2023-01-23T08:54:03.825Z,0.56
2023-01-23T08:55:03.766Z,0.56
2023-01-23T08:56:03.756Z,0.56
2023-01-23T08:57:03.758Z,0.56
2023-01-23T08:58:03.769Z,0.62
2023-01-23T08:59:03.683Z,0.56
2023-01-23T09:00:03.508Z,0.56
2023-01-23T09:01:03.521Z,0.56
2023-01-23T09:02:04.416Z,0.56
2023-01-23T09:03:03.525Z,0.56
2023-01-23T09:04:04.348Z,0.62
2023-01-23T09:05:04.248Z,0.62
2023-01-23T09:06:04.155Z,0.62
2023-01-23T09:07:04.078Z,0.62
2023-01-23T09:08:03.930Z,0.62
2023-01-23T09:09:03.837Z,0.69
2023-01-23T09:10:03.759Z,0.69
2023-01-23T09:11:03.754Z,0.69
2023-01-23T09:12:03.801Z,0.69
2023-01-23T09:13:03.589Z,0.69
2023-01-23T09:14:03.598Z,0.75
2023-01-23T09:15:03.505Z,0.75
2023-01-23T09:16:04.468Z,0.75
2023-01-23T09:17:04.401Z,0.75
2023-01-23T09:18:04.312Z,0.75
2023-01-23T09:19:04.260Z,0.81
2023-01-23T09:20:04.075Z,0.81
2023-01-23T09:21:04.000Z,0.81
2023-01-23T09:22:04.070Z,0.81
2023-01-23T09:23:03.994Z,0.75
2023-01-23T09:24:04.105Z,0.75
2023-01-23T09:25:03.681Z,0.75
2023-01-23T09:26:03.766Z,0.75
2023-01-23T09:27:03.682Z,0.75
2023-01-23T09:28:03.590Z,0.75
2023-01-23T09:29:03.508Z,0.81
2023-01-23T09:30:03.504Z,0.81
2023-01-23T09:31:03.543Z,0.88
2023-01-23T09:32:03.473Z,0.88
2023-01-23T09:33:03.437Z,0.88
2023-01-23T09:34:03.451Z,0.88
2023-01-23T09:35:03.582Z,0.94
2023-01-23T09:36:03.586Z,0.94
2023-01-23T09:37:03.512Z,0.94
2023-01-23T09:38:04.414Z,1.00
2023-01-23T09:39:04.310Z,0.94
2023-01-23T09:40:04.311Z,0.94
2023-01-23T09:41:04.228Z,0.94
2023-01-23T09:42:04.250Z,0.94
2023-01-23T09:43:04.069Z,0.94
2023-01-23T09:44:04.091Z,0.94
2023-01-23T09:45:04.010Z,0.94
2023-01-23T09:46:03.981Z,0.94
2023-01-23T09:47:03.746Z,0.88
2023-01-23T09:48:03.685Z,0.88
2023-01-23T09:49:03.680Z,0.88
2023-01-23T09:50:03.587Z,0.88
2023-01-23T09:51:03.607Z,0.88
2023-01-23T09:52:03.544Z,0.88
2023-01-23T09:53:04.390Z,0.88
2023-01-23T09:54:04.400Z,0.88
2023-01-23T09:55:04.322Z,0.88
2023-01-23T09:56:04.259Z,0.94
2023-01-23T09:57:04.235Z,0.94
2023-01-23T09:58:04.146Z,1.00
2023-01-23T09:59:04.154Z,0.94
2023-01-23T10:00:04.085Z,0.94
2023-01-23T10:01:04.169Z,0.94
2023-01-23T10:02:04.166Z,0.94
2023-01-23T10:03:04.095Z,0.94
2023-01-23T10:04:04.883Z,0.94
2023-01-23T10:05:03.935Z,0.94
2023-01-23T10:06:03.923Z,0.94
2023-01-23T10:07:03.757Z,1.00
2023-01-23T10:08:03.678Z,1.00
2023-01-23T10:09:03.673Z,1.06
2023-01-23T10:10:05.090Z,1.06
2023-01-23T10:11:03.427Z,1.06
2023-01-23T10:12:04.391Z,1.06
2023-01-23T10:13:03.442Z,1.06
2023-01-23T10:14:03.456Z,1.06
2023-01-23T10:15:03.437Z,1.06
2023-01-23T10:16:04.386Z,1.06
2023-01-23T10:17:04.380Z,1.06
2023-01-23T10:18:04.392Z,1.06
2023-01-23T10:19:04.307Z,1.06
2023-01-23T10:20:04.226Z,1.06
2023-01-23T10:21:04.238Z,1.06
2023-01-23T10:22:04.225Z,1.06
2023-01-23T10:23:04.077Z,1.06
2023-01-23T10:24:03.847Z,1.12
2023-01-23T10:25:03.906Z,1.12
2023-01-23T10:26:03.765Z,1.06
2023-01-23T10:27:03.753Z,1.12
2023-01-23T10:28:03.673Z,1.12
2023-01-23T10:29:03.674Z,1.12
2023-01-23T10:30:03.762Z,1.19
2023-01-23T10:31:03.676Z,1.19
2023-01-23T10:32:03.595Z,1.19
2023-01-23T10:33:03.509Z,1.19
2023-01-23T10:34:05.039Z,1.19
2023-01-23T10:35:04.306Z,1.19
2023-01-23T10:36:04.317Z,1.19
2023-01-23T10:37:04.151Z,1.19
2023-01-23T10:38:04.235Z,1.19
2023-01-23T10:39:04.149Z,1.19
2023-01-23T10:40:04.082Z,1.19
2023-01-23T10:41:04.072Z,1.25
2023-01-23T10:42:04.078Z,1.25
2023-01-23T10:43:03.831Z,1.25
2023-01-23T10:44:03.917Z,1.31
2023-01-23T10:45:03.834Z,1.31
2023-01-23T10:46:03.780Z,1.31
2023-01-23T10:47:03.694Z,1.31
2023-01-23T10:48:06.263Z,1.31
2023-01-23T10:49:03.440Z,1.31
2023-01-23T10:50:04.394Z,1.25
2023-01-23T10:51:04.392Z,1.25
2023-01-23T10:52:04.240Z,1.25
2023-01-23T10:53:04.232Z,1.31
2023-01-23T10:54:06.101Z,1.31
2023-01-23T10:55:03.990Z,1.31
2023-01-23T10:56:04.012Z,1.38
2023-01-23T10:57:03.883Z,1.38
2023-01-23T10:58:03.779Z,1.38
2023-01-23T10:59:03.751Z,1.38
2023-01-23T11:00:03.756Z,1.44
2023-01-23T11:01:03.790Z,1.44
2023-01-23T11:02:03.833Z,1.44
2023-01-23T11:03:03.671Z,1.44
2023-01-23T11:04:03.510Z,1.44
2023-01-23T11:05:03.515Z,1.44
2023-01-23T11:06:04.477Z,1.44
2023-01-23T11:07:04.322Z,1.44
2023-01-23T11:08:04.319Z,1.44
2023-01-23T11:09:04.243Z,1.44
2023-01-23T11:10:04.153Z,1.44
2023-01-23T11:11:04.239Z,1.44
2023-01-23T11:12:04.073Z,1.38
2023-01-23T11:13:04.148Z,1.38
2023-01-23T11:14:04.151Z,1.38
2023-01-23T11:15:04.148Z,1.38
2023-01-23T11:16:04.180Z,1.38
2023-01-23T11:17:03.991Z,1.38
2023-01-23T11:18:03.990Z,1.38
2023-01-23T11:19:04.075Z,1.44
2023-01-23T11:20:03.991Z,1.44
2023-01-23T11:21:03.999Z,1.38
2023-01-23T11:22:03.922Z,1.38
2023-01-23T11:23:03.832Z,1.38
2023-01-23T11:24:03.980Z,1.38
2023-01-23T11:25:03.866Z,1.38
2023-01-23T11:26:03.760Z,1.38
2023-01-23T11:27:03.596Z,1.38
2023-01-23T11:28:03.439Z,1.31
2023-01-23T11:29:04.479Z,1.31
2023-01-23T11:30:04.398Z,1.31
2023-01-23T11:31:13.577Z,1.31
2023-01-23T11:32:04.383Z,1.38
2023-01-23T11:33:04.246Z,1.25
2023-01-23T11:34:04.152Z,1.31
2023-01-23T11:35:04.068Z,1.25
2023-01-23T11:36:03.986Z,1.25
2023-01-23T11:37:04.159Z,1.31
2023-01-23T11:38:04.216Z,1.31
2023-01-23T11:39:04.174Z,1.38
2023-01-23T11:40:04.091Z,1.31
2023-01-23T11:41:04.008Z,1.38
2023-01-23T11:42:03.921Z,1.38
2023-01-23T11:43:03.829Z,1.38
2023-01-23T11:44:04.726Z,1.38
2023-01-23T11:45:03.673Z,1.38
2023-01-23T11:46:03.608Z,1.44
2023-01-23T11:47:03.596Z,1.44
2023-01-23T11:48:03.511Z,1.44
2023-01-23T11:49:03.505Z,1.44
2023-01-23T11:50:03.506Z,1.50
2023-01-23T11:51:03.506Z,1.50
2023-01-23T11:52:04.395Z,1.50
2023-01-23T11:53:04.478Z,1.50
2023-01-23T11:54:04.381Z,1.50
2023-01-23T11:55:04.254Z,1.50
2023-01-23T11:56:04.146Z,1.50
2023-01-23T11:57:04.153Z,1.56
2023-01-23T11:58:04.161Z,1.56
2023-01-23T11:59:04.074Z,1.50
2023-01-23T12:00:03.996Z,1.56
2023-01-23T12:01:03.991Z,1.56
2023-01-23T12:02:04.105Z,1.56
2023-01-23T12:03:04.023Z,1.56
2023-01-23T12:04:03.822Z,1.56
2023-01-23T12:05:03.767Z,1.56
2023-01-23T12:06:19.129Z,1.50
2023-01-23T12:07:03.828Z,1.56
2023-01-23T12:08:03.763Z,1.50
2023-01-23T12:09:03.761Z,1.44
2023-01-23T12:10:03.509Z,1.44
2023-01-23T12:11:03.431Z,1.50
2023-01-23T12:12:04.480Z,1.50
2023-01-23T12:13:04.311Z,1.50
2023-01-23T12:14:04.318Z,1.50
2023-01-23T12:15:04.325Z,1.50
2023-01-23T12:16:04.330Z,1.50
2023-01-23T12:17:04.228Z,1.50
2023-01-23T12:18:03.759Z,1.44
2023-01-23T12:19:03.673Z,1.44
2023-01-23T12:20:03.668Z,1.44
2023-01-23T12:21:03.604Z,1.44
2023-01-23T12:22:03.440Z,1.44
2023-01-23T12:23:03.513Z,1.44
2023-01-23T12:24:04.391Z,1.50
2023-01-23T12:25:04.323Z,1.50
2023-01-23T12:26:04.229Z,1.50
2023-01-23T12:27:04.150Z,1.50
2023-01-23T12:28:04.078Z,1.50
2023-01-23T12:29:03.990Z,1.50
2023-01-23T12:30:03.918Z,1.44
2023-01-23T12:31:05.479Z,1.44
2023-01-23T12:32:04.070Z,1.44
2023-01-23T12:33:03.836Z,1.44
2023-01-23T12:34:03.671Z,1.44
2023-01-23T12:35:03.688Z,1.50
2023-01-23T12:36:03.592Z,1.50
2023-01-23T12:37:12.018Z,1.44
2023-01-23T12:38:04.393Z,1.44
2023-01-23T12:39:04.315Z,1.44
2023-01-23T12:40:05.294Z,1.44
2023-01-23T12:41:04.322Z,1.44
2023-01-23T12:42:04.308Z,1.50
2023-01-23T12:43:04.233Z,1.50
2023-01-23T12:44:04.260Z,1.50
2023-01-23T12:45:04.149Z,1.50
2023-01-23T12:46:04.071Z,1.50
2023-01-23T12:47:03.794Z,1.50
2023-01-23T12:48:03.716Z,1.50
2023-01-23T12:49:03.603Z,1.50
2023-01-23T12:50:04.543Z,1.50
2023-01-23T12:51:03.860Z,1.50
2023-01-23T12:52:03.748Z,1.44
2023-01-23T12:53:03.665Z,1.44
2023-01-23T12:54:03.587Z,1.44
2023-01-23T12:55:03.539Z,1.44
2023-01-23T12:56:03.517Z,1.44
2023-01-23T12:57:04.541Z,1.50
2023-01-23T12:58:08.555Z,1.44
2023-01-23T12:59:03.754Z,1.50
2023-01-23T13:00:03.675Z,1.50
2023-01-23T13:01:03.763Z,1.50
2023-01-23T13:02:03.655Z,1.50
2023-01-23T13:03:03.586Z,1.50
2023-01-23T13:04:03.839Z,1.50
2023-01-23T13:05:03.998Z,1.50
2023-01-23T13:06:04.009Z,1.50
2023-01-23T13:07:04.013Z,1.50
2023-01-23T13:08:03.909Z,1.50
2023-01-23T13:09:12.905Z,1.56
2023-01-23T13:10:03.832Z,1.50
2023-01-23T13:11:03.751Z,1.44
2023-01-23T13:12:03.882Z,1.50
2023-01-23T13:13:03.748Z,1.50
2023-01-23T13:14:03.838Z,1.50
2023-01-23T13:15:13.711Z,1.50
2023-01-23T13:16:03.777Z,1.50
2023-01-23T13:17:03.830Z,1.44
2023-01-23T13:18:03.669Z,1.44